F/V Berriz Patxiku — ECES — position and weather

sailwx.info

Track history (hours):
 
Tides and Currents Weather Stations Pressure Air Temp Water Temp Dewpoint Dewpoint Depression Visibility Wind Speed Wind Dir Waves Ship Positions

F/V Berriz Patxiku

Last reported at 2016-Feb-05 05:14 UTC. Time now 2016-Feb-10 15:14 UTC.
Position N 43°21' W 001°57'.

Length 30 m.

Type: Fishing. MMSI: 224106260.

Date/timePositionNaut miles runAvg speedWind from/ knotsBaromVisibWave heightAir tempDewpointWater temp
2016-Feb-05 05:14N 43°21' W 001°57'5 7.7
2016-Feb-05 04:34N 43°25' W 001°52'8 8.2
2016-Feb-05 03:33N 43°32' W 001°48'8 7.9
2016-Feb-05 02:31N 43°40' W 001°44'18 8.5
2016-Feb-05 00:24N 43°57' W 001°36'25 8.6
2016-Feb-04 21:33N 44°21' W 001°32'9 8.6
2016-Feb-04 20:33N 44°30' W 001°31'8 8.4
2016-Feb-04 19:34N 44°38' W 001°30'5 5.0
2016-Feb-04 18:33N 44°34' W 001°26'9 8.7
2016-Feb-04 17:34N 44°25' W 001°26'56 4.3
2016-Feb-04 04:20N 43°32' W 001°51'10 3.2
2016-Feb-04 01:19N 43°23' W 001°53'4 0.2
2016-Feb-03 04:33N 43°21' W 001°59'6 5.9
2016-Feb-03 03:33N 43°23' W 001°51'1 1.3
2016-Feb-03 02:32N 43°24' W 001°50'1 0.7
2016-Feb-03 01:24N 43°24' W 001°51'1 1.5
2016-Feb-03 00:33N 43°24' W 001°49'3 0.7
2016-Feb-02 19:23N 43°22' W 001°53'1 1.1
2016-Feb-02 18:33N 43°23' W 001°52'  
Track history (hours):
 
Tides and Currents Weather Stations Pressure Air Temp Water Temp Dewpoint Dewpoint Depression Visibility Wind Speed Wind Dir Waves Ship Positions

F/V Berriz Patxiku

Last reported at 2016-Feb-05 05:14 UTC. Time now 2016-Feb-10 15:14 UTC.
Position N 43°21' W 001°57'.

Length 30 m.

Type: Fishing. MMSI: 224106260.

Date/timePositionNaut miles runAvg speedWind from/ knotsBaromVisibWave heightAir tempDewpointWater temp
2016-Feb-05 05:14N 43°21' W 001°57'5 7.7
2016-Feb-05 04:34N 43°25' W 001°52'8 8.2
2016-Feb-05 03:33N 43°32' W 001°48'8 7.9
2016-Feb-05 02:31N 43°40' W 001°44'18 8.5
2016-Feb-05 00:24N 43°57' W 001°36'25 8.6
2016-Feb-04 21:33N 44°21' W 001°32'9 8.6
2016-Feb-04 20:33N 44°30' W 001°31'8 8.4
2016-Feb-04 19:34N 44°38' W 001°30'5 5.0
2016-Feb-04 18:33N 44°34' W 001°26'9 8.7
2016-Feb-04 17:34N 44°25' W 001°26'56 4.3
2016-Feb-04 04:20N 43°32' W 001°51'10 3.2
2016-Feb-04 01:19N 43°23' W 001°53'4 0.2
2016-Feb-03 04:33N 43°21' W 001°59'6 5.9
2016-Feb-03 03:33N 43°23' W 001°51'1 1.3
2016-Feb-03 02:32N 43°24' W 001°50'1 0.7
2016-Feb-03 01:24N 43°24' W 001°51'1 1.5
2016-Feb-03 00:33N 43°24' W 001°49'3 0.7
2016-Feb-02 19:23N 43°22' W 001°53'1 1.1
2016-Feb-02 18:33N 43°23' W 001°52'  

Dump ship's entire track history